sensor_id;sensor_type;location;lat;lon;timestamp;pressure;altitude;pressure_sealevel;temperature;humidity
52957;BME280;38819;42.692;23.342;2022-09-01T00:00:45;95098.19;;;20.20;72.48
52957;BME280;38819;42.692;23.342;2022-09-01T00:03:17;95094.31;;;20.21;72.08
52957;BME280;38819;42.692;23.342;2022-09-01T00:05:43;95089.25;;;20.23;71.99
52957;BME280;38819;42.692;23.342;2022-09-01T00:08:13;95100.00;;;20.12;71.65
52957;BME280;38819;42.692;23.342;2022-09-01T00:10:39;95097.97;;;20.09;72.01
52957;BME280;38819;42.692;23.342;2022-09-01T00:13:05;95100.47;;;19.98;71.69
52957;BME280;38819;42.692;23.342;2022-09-01T00:15:32;95096.69;;;19.87;71.95
52957;BME280;38819;42.692;23.342;2022-09-01T00:17:58;95088.03;;;19.85;72.37
52957;BME280;38819;42.692;23.342;2022-09-01T00:20:24;95086.41;;;19.84;72.56
52957;BME280;38819;42.692;23.342;2022-09-01T00:22:49;95079.69;;;19.81;72.16
52957;BME280;38819;42.692;23.342;2022-09-01T00:25:15;95085.28;;;19.85;71.98
52957;BME280;38819;42.692;23.342;2022-09-01T00:27:43;95085.16;;;19.81;72.13
52957;BME280;38819;42.692;23.342;2022-09-01T00:30:09;95090.91;;;19.76;72.27
52957;BME280;38819;42.692;23.342;2022-09-01T00:32:35;95083.56;;;19.64;72.77
52957;BME280;38819;42.692;23.342;2022-09-01T00:35:00;95083.84;;;19.43;73.58
52957;BME280;38819;42.692;23.342;2022-09-01T00:37:26;95090.28;;;19.35;74.03
52957;BME280;38819;42.692;23.342;2022-09-01T00:39:51;95098.94;;;19.37;73.56
52957;BME280;38819;42.692;23.342;2022-09-01T00:42:17;95096.63;;;19.39;73.63
52957;BME280;38819;42.692;23.342;2022-09-01T00:44:42;95103.72;;;19.40;73.54
52957;BME280;38819;42.692;23.342;2022-09-01T00:47:08;95097.25;;;19.32;73.70
52957;BME280;38819;42.692;23.342;2022-09-01T00:49:46;95101.09;;;19.15;74.75
52957;BME280;38819;42.692;23.342;2022-09-01T00:52:24;95105.97;;;19.22;74.53
52957;BME280;38819;42.692;23.342;2022-09-01T00:55:02;95105.44;;;19.16;74.34
52957;BME280;38819;42.692;23.342;2022-09-01T00:57:29;95101.78;;;19.12;74.49
52957;BME280;38819;42.692;23.342;2022-09-01T01:00:11;95106.66;;;19.19;74.52
52957;BME280;38819;42.692;23.342;2022-09-01T01:02:39;95111.28;;;19.15;74.52
52957;BME280;38819;42.692;23.342;2022-09-01T01:05:05;95101.63;;;19.21;74.19
52957;BME280;38819;42.692;23.342;2022-09-01T01:07:32;95105.69;;;19.11;74.74
52957;BME280;38819;42.692;23.342;2022-09-01T01:10:05;95112.66;;;19.09;74.68
52957;BME280;38819;42.692;23.342;2022-09-01T01:12:31;95119.63;;;19.06;75.03
52957;BME280;38819;42.692;23.342;2022-09-01T01:14:57;95114.25;;;19.10;74.83
52957;BME280;38819;42.692;23.342;2022-09-01T01:17:24;95110.63;;;19.05;74.98
52957;BME280;38819;42.692;23.342;2022-09-01T01:19:55;95113.34;;;19.05;74.97
52957;BME280;38819;42.692;23.342;2022-09-01T01:25:35;95112.91;;;19.03;74.35
52957;BME280;38819;42.692;23.342;2022-09-01T01:28:10;95101.72;;;19.09;74.42
52957;BME280;38819;42.692;23.342;2022-09-01T01:30:37;95109.13;;;19.08;74.28
52957;BME280;38819;42.692;23.342;2022-09-01T01:33:05;95108.78;;;19.10;74.57
52957;BME280;38819;42.692;23.342;2022-09-01T01:35:30;95114.00;;;19.15;74.29
52957;BME280;38819;42.692;23.342;2022-09-01T01:37:59;95105.78;;;19.15;73.91
52957;BME280;38819;42.692;23.342;2022-09-01T01:40:26;95107.38;;;19.16;73.61
52957;BME280;38819;42.692;23.342;2022-09-01T01:42:53;95121.31;;;19.11;74.11
52957;BME280;38819;42.692;23.342;2022-09-01T01:45:21;95112.56;;;19.05;74.33
52957;BME280;38819;42.692;23.342;2022-09-01T01:47:48;95115.47;;;19.12;74.00
52957;BME280;38819;42.692;23.342;2022-09-01T01:50:26;95112.06;;;19.15;73.67
52957;BME280;38819;42.692;23.342;2022-09-01T01:52:54;95124.97;;;19.15;73.89
52957;BME280;38819;42.692;23.342;2022-09-01T01:55:22;95131.91;;;19.12;73.98
52957;BME280;38819;42.692;23.342;2022-09-01T01:57:52;95129.88;;;19.09;74.23
52957;BME280;38819;42.692;23.342;2022-09-01T02:00:21;95136.50;;;19.08;74.09
52957;BME280;38819;42.692;23.342;2022-09-01T02:02:48;95131.03;;;19.08;74.16
52957;BME280;38819;42.692;23.342;2022-09-01T02:05:23;95135.69;;;19.07;74.28
52957;BME280;38819;42.692;23.342;2022-09-01T02:07:51;95143.38;;;19.02;74.61
52957;BME280;38819;42.692;23.342;2022-09-01T02:10:22;95141.50;;;19.06;74.44
52957;BME280;38819;42.692;23.342;2022-09-01T02:12:48;95141.06;;;19.04;74.46
52957;BME280;38819;42.692;23.342;2022-09-01T02:15:13;95149.03;;;19.09;73.90
52957;BME280;38819;42.692;23.342;2022-09-01T02:17:40;95141.66;;;18.97;74.57
52957;BME280;38819;42.692;23.342;2022-09-01T02:20:08;95145.66;;;19.00;74.65
52957;BME280;38819;42.692;23.342;2022-09-01T02:22:34;95150.31;;;18.99;75.01
52957;BME280;38819;42.692;23.342;2022-09-01T02:25:03;95142.00;;;18.96;75.00
52957;BME280;38819;42.692;23.342;2022-09-01T02:27:28;95138.84;;;18.94;74.83
52957;BME280;38819;42.692;23.342;2022-09-01T02:29:54;95140.34;;;18.91;75.09
52957;BME280;38819;42.692;23.342;2022-09-01T02:32:20;95141.81;;;18.88;74.84
52957;BME280;38819;42.692;23.342;2022-09-01T02:34:49;95136.88;;;18.94;74.93
52957;BME280;38819;42.692;23.342;2022-09-01T02:37:21;95132.66;;;18.97;74.57
52957;BME280;38819;42.692;23.342;2022-09-01T02:39:50;95133.00;;;18.95;74.59
52957;BME280;38819;42.692;23.342;2022-09-01T02:42:18;95132.22;;;18.95;74.80
52957;BME280;38819;42.692;23.342;2022-09-01T02:44:51;95130.53;;;18.90;74.75
52957;BME280;38819;42.692;23.342;2022-09-01T02:47:16;95119.22;;;18.92;74.57
52957;BME280;38819;42.692;23.342;2022-09-01T02:49:42;95115.34;;;18.93;74.49
52957;BME280;38819;42.692;23.342;2022-09-01T02:52:09;95123.78;;;18.87;74.61
52957;BME280;38819;42.692;23.342;2022-09-01T02:54:35;95117.53;;;18.87;74.89
52957;BME280;38819;42.692;23.342;2022-09-01T02:57:00;95117.53;;;18.87;74.57
52957;BME280;38819;42.692;23.342;2022-09-01T02:59:27;95116.75;;;18.86;74.64
52957;BME280;38819;42.692;23.342;2022-09-01T03:01:54;95117.09;;;18.85;74.80
52957;BME280;38819;42.692;23.342;2022-09-01T03:04:21;95117.44;;;18.83;74.89
52957;BME280;38819;42.692;23.342;2022-09-01T03:06:47;95118.09;;;18.80;75.20
52957;BME280;38819;42.692;23.342;2022-09-01T03:09:16;95114.22;;;18.81;74.88
52957;BME280;38819;42.692;23.342;2022-09-01T03:11:43;95115.16;;;18.85;74.82
52957;BME280;38819;42.692;23.342;2022-09-01T03:14:09;95120.84;;;18.80;74.85
52957;BME280;38819;42.692;23.342;2022-09-01T03:16:36;95123.78;;;18.87;74.45
52957;BME280;38819;42.692;23.342;2022-09-01T03:19:04;95118.22;;;18.84;74.38
52957;BME280;38819;42.692;23.342;2022-09-01T03:21:35;95122.91;;;18.83;74.10
52957;BME280;38819;42.692;23.342;2022-09-01T03:24:02;95121.28;;;18.95;73.08
52957;BME280;38819;42.692;23.342;2022-09-01T03:26:29;95119.94;;;18.88;73.59
52957;BME280;38819;42.692;23.342;2022-09-01T03:28:55;95126.19;;;18.89;74.10
52957;BME280;38819;42.692;23.342;2022-09-01T03:31:21;95124.63;;;18.88;74.65
52957;BME280;38819;42.692;23.342;2022-09-01T03:33:46;95134.31;;;18.85;74.94
52957;BME280;38819;42.692;23.342;2022-09-01T03:36:12;95134.56;;;18.68;75.66
52957;BME280;38819;42.692;23.342;2022-09-01T03:38:47;95129.78;;;18.65;76.04
52957;BME280;38819;42.692;23.342;2022-09-01T03:41:14;95131.78;;;18.27;77.72
52957;BME280;38819;42.692;23.342;2022-09-01T03:43:43;95137.16;;;18.11;78.62
52957;BME280;38819;42.692;23.342;2022-09-01T03:46:09;95138.53;;;18.18;78.10
52957;BME280;38819;42.692;23.342;2022-09-01T03:48:40;95129.41;;;18.13;78.22
52957;BME280;38819;42.692;23.342;2022-09-01T03:51:07;95132.16;;;18.01;79.07
52957;BME280;38819;42.692;23.342;2022-09-01T03:53:36;95134.31;;;17.95;79.26
52957;BME280;38819;42.692;23.342;2022-09-01T03:56:03;95135.91;;;17.96;79.66
52957;BME280;38819;42.692;23.342;2022-09-01T03:58:28;95132.84;;;17.98;79.54
52957;BME280;38819;42.692;23.342;2022-09-01T04:00:55;95123.59;;;17.90;80.02
52957;BME280;38819;42.692;23.342;2022-09-01T04:03:24;95132.78;;;17.86;80.06
52957;BME280;38819;42.692;23.342;2022-09-01T04:05:51;95133.41;;;17.91;80.25
52957;BME280;38819;42.692;23.342;2022-09-01T04:08:18;95139.44;;;17.97;79.96
52957;BME280;38819;42.692;23.342;2022-09-01T04:10:51;95138.97;;;17.95;80.19
52957;BME280;38819;42.692;23.342;2022-09-01T04:13:22;95141.72;;;17.95;80.44
52957;BME280;38819;42.692;23.342;2022-09-01T04:15:48;95137.03;;;17.95;80.13
52957;BME280;38819;42.692;23.342;2022-09-01T04:18:14;95136.94;;;17.92;80.52
52957;BME280;38819;42.692;23.342;2022-09-01T04:20:54;95130.56;;;18.00;80.40
52957;BME280;38819;42.692;23.342;2022-09-01T04:23:26;95137.72;;;17.92;80.44
52957;BME280;38819;42.692;23.342;2022-09-01T04:26:14;95132.00;;;17.85;80.84
52957;BME280;38819;42.692;23.342;2022-09-01T04:28:46;95132.34;;;17.84;80.89
52957;BME280;38819;42.692;23.342;2022-09-01T04:31:19;95129.88;;;17.91;80.84
52957;BME280;38819;42.692;23.342;2022-09-01T04:33:48;95133.28;;;18.00;80.59
52957;BME280;38819;42.692;23.342;2022-09-01T04:36:24;95132.38;;;18.08;80.01
52957;BME280;38819;42.692;23.342;2022-09-01T04:38:55;95132.38;;;18.08;79.58
52957;BME280;38819;42.692;23.342;2022-09-01T04:41:28;95134.31;;;18.08;79.61
52957;BME280;38819;42.692;23.342;2022-09-01T04:43:56;95137.59;;;18.13;79.50
52957;BME280;38819;42.692;23.342;2022-09-01T04:46:23;95133.84;;;18.18;79.41
52957;BME280;38819;42.692;23.342;2022-09-01T04:48:53;95122.47;;;18.16;79.38
52957;BME280;38819;42.692;23.342;2022-09-01T04:51:20;95130.19;;;18.14;79.34
52957;BME280;38819;42.692;23.342;2022-09-01T04:53:46;95127.59;;;18.18;78.90
52957;BME280;38819;42.692;23.342;2022-09-01T04:56:17;95121.41;;;18.21;78.83
52957;BME280;38819;42.692;23.342;2022-09-01T04:58:48;95133.38;;;18.28;78.64
52957;BME280;38819;42.692;23.342;2022-09-01T05:01:16;95121.09;;;18.22;78.58
52957;BME280;38819;42.692;23.342;2022-09-01T05:03:42;95128.38;;;18.30;78.14
52957;BME280;38819;42.692;23.342;2022-09-01T05:06:14;95129.72;;;18.37;78.14
52957;BME280;38819;42.692;23.342;2022-09-01T05:08:41;95129.03;;;18.40;77.67
52957;BME280;38819;42.692;23.342;2022-09-01T05:11:08;95131.97;;;18.47;77.86
52957;BME280;38819;42.692;23.342;2022-09-01T05:13:35;95131.19;;;18.46;78.11
52957;BME280;38819;42.692;23.342;2022-09-01T05:16:06;95141.56;;;18.53;77.83
52957;BME280;38819;42.692;23.342;2022-09-01T05:18:43;95127.78;;;18.49;77.75
52957;BME280;38819;42.692;23.342;2022-09-01T05:21:15;95129.59;;;18.58;77.47
52957;BME280;38819;42.692;23.342;2022-09-01T05:23:43;95117.41;;;18.43;77.68
52957;BME280;38819;42.692;23.342;2022-09-01T05:26:17;95125.59;;;18.55;77.84
52957;BME280;38819;42.692;23.342;2022-09-01T05:28:44;95131.25;;;18.62;77.46
52957;BME280;38819;42.692;23.342;2022-09-01T05:31:10;95128.19;;;18.64;77.16
52957;BME280;38819;42.692;23.342;2022-09-01T05:33:37;95128.84;;;18.73;76.97
52957;BME280;38819;42.692;23.342;2022-09-01T05:36:09;95121.22;;;18.66;77.01
52957;BME280;38819;42.692;23.342;2022-09-01T05:38:35;95121.53;;;18.77;76.37
52957;BME280;38819;42.692;23.342;2022-09-01T05:41:03;95121.63;;;18.93;76.00
52957;BME280;38819;42.692;23.342;2022-09-01T05:43:33;95117.47;;;18.99;75.51
52957;BME280;38819;42.692;23.342;2022-09-01T05:45:59;95123.25;;;19.10;75.37
52957;BME280;38819;42.692;23.342;2022-09-01T05:48:29;95118.91;;;19.09;75.09
52957;BME280;38819;42.692;23.342;2022-09-01T05:50:56;95123.25;;;19.10;74.86
52957;BME280;38819;42.692;23.342;2022-09-01T05:53:26;95128.03;;;18.85;76.06
52957;BME280;38819;42.692;23.342;2022-09-01T05:55:53;95132.00;;;18.87;76.76
52957;BME280;38819;42.692;23.342;2022-09-01T05:58:22;95136.69;;;18.87;76.78
52957;BME280;38819;42.692;23.342;2022-09-01T06:00:49;95133.00;;;18.95;76.56
52957;BME280;38819;42.692;23.342;2022-09-01T06:03:16;95139.97;;;18.93;76.69
52957;BME280;38819;42.692;23.342;2022-09-01T06:05:42;95129.50;;;18.95;76.69
52957;BME280;38819;42.692;23.342;2022-09-01T06:08:09;95127.47;;;19.07;76.31
52957;BME280;38819;42.692;23.342;2022-09-01T06:10:38;95117.19;;;19.17;75.95
52957;BME280;38819;42.692;23.342;2022-09-01T06:13:08;95109.34;;;19.31;75.32
52957;BME280;38819;42.692;23.342;2022-09-01T06:15:35;95114.09;;;19.34;74.60
52957;BME280;38819;42.692;23.342;2022-09-01T06:18:04;95113.59;;;19.29;74.68
52957;BME280;38819;42.692;23.342;2022-09-01T06:20:31;95111.94;;;19.40;74.09
52957;BME280;38819;42.692;23.342;2022-09-01T06:22:56;95109.63;;;19.42;74.03
52957;BME280;38819;42.692;23.342;2022-09-01T06:25:22;95114.56;;;19.52;73.89
52957;BME280;38819;42.692;23.342;2022-09-01T06:27:48;95123.16;;;19.51;74.34
52957;BME280;38819;42.692;23.342;2022-09-01T06:30:15;95117.06;;;19.41;74.07
52957;BME280;38819;42.692;23.342;2022-09-01T06:32:45;95117.41;;;19.56;73.79
52957;BME280;38819;42.692;23.342;2022-09-01T06:35:12;95122.63;;;19.61;73.40
52957;BME280;38819;42.692;23.342;2022-09-01T06:37:40;95113.69;;;19.64;73.57
52957;BME280;38819;42.692;23.342;2022-09-01T06:40:09;95110.44;;;19.58;73.66
52957;BME280;38819;42.692;23.342;2022-09-01T06:42:42;95101.22;;;19.51;74.30
52957;BME280;38819;42.692;23.342;2022-09-01T06:45:09;95103.88;;;19.47;73.98
52957;BME280;38819;42.692;23.342;2022-09-01T06:47:35;95097.97;;;19.45;74.21
52957;BME280;38819;42.692;23.342;2022-09-01T06:50:02;95099.41;;;19.55;73.93
52957;BME280;38819;42.692;23.342;2022-09-01T06:52:27;95111.94;;;19.56;74.05
52957;BME280;38819;42.692;23.342;2022-09-01T06:54:53;95104.25;;;19.61;73.58
52957;BME280;38819;42.692;23.342;2022-09-01T06:57:19;95104.94;;;19.74;73.17
52957;BME280;38819;42.692;23.342;2022-09-01T06:59:45;95106.09;;;19.73;73.21
52957;BME280;38819;42.692;23.342;2022-09-01T07:02:12;95107.69;;;19.74;73.04
52957;BME280;38819;42.692;23.342;2022-09-01T07:04:41;95103.47;;;19.77;72.93
52957;BME280;38819;42.692;23.342;2022-09-01T07:07:11;95109.03;;;19.80;72.73
52957;BME280;38819;42.692;23.342;2022-09-01T07:09:37;95110.16;;;19.63;73.32
52957;BME280;38819;42.692;23.342;2022-09-01T07:12:04;95106.47;;;19.72;73.05
52957;BME280;38819;42.692;23.342;2022-09-01T07:14:30;95103.91;;;19.79;72.89
52957;BME280;38819;42.692;23.342;2022-09-01T07:16:55;95097.28;;;19.80;72.66
52957;BME280;38819;42.692;23.342;2022-09-01T07:19:23;95102.81;;;19.99;71.89
52957;BME280;38819;42.692;23.342;2022-09-01T07:21:50;95096.72;;;20.06;71.76
52957;BME280;38819;42.692;23.342;2022-09-01T07:24:17;95098.88;;;19.97;71.98
52957;BME280;38819;42.692;23.342;2022-09-01T07:26:45;95102.81;;;19.99;71.98
52957;BME280;38819;42.692;23.342;2022-09-01T07:29:15;95100.44;;;20.14;71.53
52957;BME280;38819;42.692;23.342;2022-09-01T07:31:42;95098.38;;;20.27;70.89
52957;BME280;38819;42.692;23.342;2022-09-01T07:34:10;95101.59;;;20.48;70.35
52957;BME280;38819;42.692;23.342;2022-09-01T07:36:38;95097.31;;;20.51;70.36
52957;BME280;38819;42.692;23.342;2022-09-01T07:39:05;95100.50;;;20.33;71.84
52957;BME280;38819;42.692;23.342;2022-09-01T07:41:30;95094.81;;;20.26;71.22
52957;BME280;38819;42.692;23.342;2022-09-01T07:43:59;95101.19;;;20.30;72.10
52957;BME280;38819;42.692;23.342;2022-09-01T07:46:28;95094.56;;;20.31;72.44
52957;BME280;38819;42.692;23.342;2022-09-01T07:48:57;95094.28;;;20.36;71.67
52957;BME280;38819;42.692;23.342;2022-09-01T07:51:24;95094.22;;;20.52;71.12
52957;BME280;38819;42.692;23.342;2022-09-01T07:53:51;95093.03;;;20.69;70.15
52957;BME280;38819;42.692;23.342;2022-09-01T07:56:19;95098.75;;;20.80;69.60
52957;BME280;38819;42.692;23.342;2022-09-01T07:58:47;95099.91;;;20.99;69.68
52957;BME280;38819;42.692;23.342;2022-09-01T08:01:20;95104.97;;;20.97;69.40
52957;BME280;38819;42.692;23.342;2022-09-01T08:03:49;95106.91;;;20.96;69.07
52957;BME280;38819;42.692;23.342;2022-09-01T08:06:19;95101.28;;;21.08;69.18
52957;BME280;38819;42.692;23.342;2022-09-01T08:08:48;95103.00;;;21.17;68.68
52957;BME280;38819;42.692;23.342;2022-09-01T08:11:20;95099.81;;;21.15;68.80
52957;BME280;38819;42.692;23.342;2022-09-01T08:13:47;95092.03;;;21.17;69.16
52957;BME280;38819;42.692;23.342;2022-09-01T08:16:13;95088.31;;;21.28;68.21
52957;BME280;38819;42.692;23.342;2022-09-01T08:18:39;95086.97;;;21.42;67.44
52957;BME280;38819;42.692;23.342;2022-09-01T08:21:10;95090.34;;;21.55;66.91
52957;BME280;38819;42.692;23.342;2022-09-01T08:23:36;95092.13;;;21.67;66.33
52957;BME280;38819;42.692;23.342;2022-09-01T08:26:11;95091.03;;;21.71;66.10
52957;BME280;38819;42.692;23.342;2022-09-01T08:28:38;95085.72;;;21.82;66.09
52957;BME280;38819;42.692;23.342;2022-09-01T08:31:10;95085.09;;;21.92;65.54
52957;BME280;38819;42.692;23.342;2022-09-01T08:33:37;95079.84;;;21.83;66.39
52957;BME280;38819;42.692;23.342;2022-09-01T08:36:03;95078.53;;;21.74;65.99
52957;BME280;38819;42.692;23.342;2022-09-01T08:38:28;95084.81;;;21.74;66.49
52957;BME280;38819;42.692;23.342;2022-09-01T08:40:56;95074.41;;;21.87;65.95
52957;BME280;38819;42.692;23.342;2022-09-01T08:46:04;95076.44;;;21.90;65.41
52957;BME280;38819;42.692;23.342;2022-09-01T08:48:58;95082.06;;;22.01;64.54
52957;BME280;38819;42.692;23.342;2022-09-01T08:54:52;95070.97;;;22.20;64.61
52957;BME280;38819;42.692;23.342;2022-09-01T08:57:31;95062.38;;;22.22;63.13
52957;BME280;38819;42.692;23.342;2022-09-01T08:59:57;95064.09;;;22.30;63.24
52957;BME280;38819;42.692;23.342;2022-09-01T09:05:37;95051.03;;;22.27;63.32
52957;BME280;38819;42.692;23.342;2022-09-01T09:08:55;95045.59;;;22.31;62.58
52957;BME280;38819;42.692;23.342;2022-09-01T09:11:43;95047.66;;;22.37;62.12
52957;BME280;38819;42.692;23.342;2022-09-01T09:16:58;95045.41;;;22.47;61.04
52957;BME280;38819;42.692;23.342;2022-09-01T09:19:28;95039.28;;;22.57;60.60
52957;BME280;38819;42.692;23.342;2022-09-01T09:21:57;95039.81;;;22.70;61.00
52957;BME280;38819;42.692;23.342;2022-09-01T09:30:00;95034.00;;;22.79;59.88
52957;BME280;38819;42.692;23.342;2022-09-01T09:35:30;95029.75;;;22.85;59.41
52957;BME280;38819;42.692;23.342;2022-09-01T09:38:15;95028.69;;;22.97;58.87
52957;BME280;38819;42.692;23.342;2022-09-01T09:41:16;95017.34;;;23.02;59.07
52957;BME280;38819;42.692;23.342;2022-09-01T09:43:52;95018.25;;;23.09;58.75
52957;BME280;38819;42.692;23.342;2022-09-01T09:49:25;95012.06;;;23.23;57.99
52957;BME280;38819;42.692;23.342;2022-09-01T09:52:13;95008.69;;;23.37;56.63
52957;BME280;38819;42.692;23.342;2022-09-01T09:57:24;95008.25;;;23.35;55.56
52957;BME280;38819;42.692;23.342;2022-09-01T10:00:00;95008.38;;;23.49;55.40
52957;BME280;38819;42.692;23.342;2022-09-01T10:02:41;94999.72;;;23.47;55.44
52957;BME280;38819;42.692;23.342;2022-09-01T10:07:52;95010.41;;;23.56;55.31
52957;BME280;38819;42.692;23.342;2022-09-01T10:12:52;94997.53;;;23.75;54.71
52957;BME280;38819;42.692;23.342;2022-09-01T10:15:20;94992.94;;;23.86;53.91
52957;BME280;38819;42.692;23.342;2022-09-01T10:17:47;94997.69;;;23.93;53.50
52957;BME280;38819;42.692;23.342;2022-09-01T10:20:17;94996.19;;;24.02;52.85
52957;BME280;38819;42.692;23.342;2022-09-01T10:22:46;94983.59;;;24.05;53.81
52957;BME280;38819;42.692;23.342;2022-09-01T10:25:19;94985.56;;;24.04;53.45
52957;BME280;38819;42.692;23.342;2022-09-01T10:27:59;94987.56;;;24.11;53.80
52957;BME280;38819;42.692;23.342;2022-09-01T10:30:27;94979.28;;;24.11;52.11
52957;BME280;38819;42.692;23.342;2022-09-01T10:32:57;94971.41;;;24.13;52.53
52957;BME280;38819;42.692;23.342;2022-09-01T10:37:52;94973.50;;;24.31;52.23
52957;BME280;38819;42.692;23.342;2022-09-01T10:43:00;94971.53;;;24.38;52.15
52957;BME280;38819;42.692;23.342;2022-09-01T10:45:45;94968.00;;;24.41;50.14
52957;BME280;38819;42.692;23.342;2022-09-01T11:04:18;94963.53;;;25.39;51.25
52957;BME280;38819;42.692;23.342;2022-09-01T11:15:41;94935.50;;;25.55;49.42
52957;BME280;38819;42.692;23.342;2022-09-01T11:18:30;94940.63;;;25.53;49.39
52957;BME280;38819;42.692;23.342;2022-09-01T11:21:19;94939.84;;;25.63;49.88
52957;BME280;38819;42.692;23.342;2022-09-01T11:23:47;94935.88;;;25.68;49.63
52957;BME280;38819;42.692;23.342;2022-09-01T11:28:59;94934.28;;;25.70;48.99
52957;BME280;38819;42.692;23.342;2022-09-01T11:31:28;94932.69;;;25.80;48.23
52957;BME280;38819;42.692;23.342;2022-09-01T11:34:02;94929.13;;;25.87;49.08
52957;BME280;38819;42.692;23.342;2022-09-01T11:41:55;94921.59;;;26.02;48.29
52957;BME280;38819;42.692;23.342;2022-09-01T11:44:25;94912.91;;;26.03;48.92
52957;BME280;38819;42.692;23.342;2022-09-01T11:47:03;94907.72;;;26.09;48.73
52957;BME280;38819;42.692;23.342;2022-09-01T11:49:32;94896.28;;;26.07;48.45
52957;BME280;38819;42.692;23.342;2022-09-01T11:51:59;94899.03;;;26.11;48.56
52957;BME280;38819;42.692;23.342;2022-09-01T11:54:27;94898.63;;;26.16;48.27
52957;BME280;38819;42.692;23.342;2022-09-01T11:56:53;94891.50;;;26.18;48.48
52957;BME280;38819;42.692;23.342;2022-09-01T11:59:32;94881.25;;;26.12;47.00
52957;BME280;38819;42.692;23.342;2022-09-01T12:01:59;94884.38;;;26.24;47.51
52957;BME280;38819;42.692;23.342;2022-09-01T12:04:31;94891.41;;;26.33;48.70
52957;BME280;38819;42.692;23.342;2022-09-01T12:07:29;94890.59;;;26.39;47.32
52957;BME280;38819;42.692;23.342;2022-09-01T12:09:59;94883.50;;;26.38;47.64
52957;BME280;38819;42.692;23.342;2022-09-01T12:15:02;94885.09;;;26.36;49.94
52957;BME280;38819;42.692;23.342;2022-09-01T12:17:28;94889.88;;;26.28;50.52
52957;BME280;38819;42.692;23.342;2022-09-01T12:19:54;94887.50;;;26.27;51.28
52957;BME280;38819;42.692;23.342;2022-09-01T12:22:21;94886.66;;;26.40;51.38
52957;BME280;38819;42.692;23.342;2022-09-01T12:24:50;94880.72;;;26.42;51.15
52957;BME280;38819;42.692;23.342;2022-09-01T12:27:16;94876.34;;;26.48;50.45
52957;BME280;38819;42.692;23.342;2022-09-01T12:29:41;94884.22;;;26.53;50.61
52957;BME280;38819;42.692;23.342;2022-09-01T12:32:08;94883.03;;;26.51;51.77
52957;BME280;38819;42.692;23.342;2022-09-01T12:34:42;94871.13;;;26.57;51.65
52957;BME280;38819;42.692;23.342;2022-09-01T12:37:21;94876.66;;;26.65;50.79
52957;BME280;38819;42.692;23.342;2022-09-01T12:39:50;94877.44;;;26.69;51.04
52957;BME280;38819;42.692;23.342;2022-09-01T12:44:58;94870.66;;;26.77;51.00
52957;BME280;38819;42.692;23.342;2022-09-01T12:50:14;94863.50;;;26.79;50.54
52957;BME280;38819;42.692;23.342;2022-09-01T12:52:56;94867.81;;;26.84;50.69
52957;BME280;38819;42.692;23.342;2022-09-01T12:55:24;94868.19;;;26.86;50.09
52957;BME280;38819;42.692;23.342;2022-09-01T12:57:50;94865.03;;;26.88;50.12
52957;BME280;38819;42.692;23.342;2022-09-01T13:00:23;94870.56;;;26.88;50.69
52957;BME280;38819;42.692;23.342;2022-09-01T13:02:51;94857.91;;;26.87;50.53
52957;BME280;38819;42.692;23.342;2022-09-01T13:05:29;94858.19;;;26.99;49.83
52957;BME280;38819;42.692;23.342;2022-09-01T13:08:17;94862.91;;;27.06;50.04
52957;BME280;38819;42.692;23.342;2022-09-01T13:11:04;94856.56;;;27.06;48.84
52957;BME280;38819;42.692;23.342;2022-09-01T13:13:31;94855.41;;;27.07;49.40
52957;BME280;38819;42.692;23.342;2022-09-01T13:16:00;94849.78;;;27.14;49.82
52957;BME280;38819;42.692;23.342;2022-09-01T13:18:26;94846.19;;;27.17;49.27
52957;BME280;38819;42.692;23.342;2022-09-01T13:20:53;94848.19;;;27.13;49.30
52957;BME280;38819;42.692;23.342;2022-09-01T13:23:20;94841.09;;;27.12;48.32
52957;BME280;38819;42.692;23.342;2022-09-01T13:25:46;94837.88;;;27.17;48.54
52957;BME280;38819;42.692;23.342;2022-09-01T13:28:13;94831.53;;;27.20;48.57
52957;BME280;38819;42.692;23.342;2022-09-01T13:30:39;94843.31;;;27.31;48.07
52957;BME280;38819;42.692;23.342;2022-09-01T13:33:05;94836.16;;;27.34;47.80
52957;BME280;38819;42.692;23.342;2022-09-01T13:35:31;94846.41;;;27.41;48.33
52957;BME280;38819;42.692;23.342;2022-09-01T13:37:56;94839.59;;;27.49;48.15
52957;BME280;38819;42.692;23.342;2022-09-01T13:40:22;94844.78;;;27.47;49.09
52957;BME280;38819;42.692;23.342;2022-09-01T13:42:49;94855.03;;;27.50;47.98
52957;BME280;38819;42.692;23.342;2022-09-01T13:45:16;94846.28;;;27.51;48.08
52957;BME280;38819;42.692;23.342;2022-09-01T13:47:44;94852.63;;;27.52;48.63
52957;BME280;38819;42.692;23.342;2022-09-01T13:50:12;94844.59;;;27.61;47.73
52957;BME280;38819;42.692;23.342;2022-09-01T13:52:40;94845.00;;;27.63;46.86
52957;BME280;38819;42.692;23.342;2022-09-01T13:55:10;94846.94;;;27.66;46.84
52957;BME280;38819;42.692;23.342;2022-09-01T13:57:35;94845.38;;;27.65;47.07
52957;BME280;38819;42.692;23.342;2022-09-01T14:00:03;94840.28;;;27.60;46.83
52957;BME280;38819;42.692;23.342;2022-09-01T14:02:29;94836.38;;;27.54;48.60
52957;BME280;38819;42.692;23.342;2022-09-01T14:04:54;94838.03;;;27.44;49.41
52957;BME280;38819;42.692;23.342;2022-09-01T14:07:20;94839.66;;;27.42;49.47
52957;BME280;38819;42.692;23.342;2022-09-01T14:09:46;94845.66;;;27.37;50.02
52957;BME280;38819;42.692;23.342;2022-09-01T14:12:11;94844.53;;;27.30;49.93
52957;BME280;38819;42.692;23.342;2022-09-01T14:14:36;94846.56;;;27.19;49.40
52957;BME280;38819;42.692;23.342;2022-09-01T14:17:02;94848.19;;;27.13;49.00
52957;BME280;38819;42.692;23.342;2022-09-01T14:19:28;94847.44;;;27.09;48.76
52957;BME280;38819;42.692;23.342;2022-09-01T14:21:54;94853.88;;;26.98;48.89